createdAt,value
2022-10-17T00:01:08.304Z,13.75
2022-10-17T00:03:37.568Z,15.15
2022-10-17T00:06:11.724Z,15.48
2022-10-17T00:08:41.220Z,17.55
2022-10-17T00:11:17.628Z,14.30
2022-10-17T00:13:47.210Z,15.07
2022-10-17T00:16:16.411Z,12.15
2022-10-17T00:18:44.287Z,15.18
2022-10-17T00:21:17.310Z,12.10
2022-10-17T00:23:45.915Z,13.90
2022-10-17T00:26:14.772Z,12.35
2022-10-17T00:28:42.828Z,14.70
2022-10-17T00:31:11.782Z,13.57
2022-10-17T00:33:39.646Z,11.52
2022-10-17T00:36:13.846Z,14.10
2022-10-17T00:38:43.905Z,14.52
2022-10-17T00:42:26.671Z,13.10
2022-10-17T00:45:02.887Z,14.38
2022-10-17T00:47:31.403Z,11.25
2022-10-17T00:52:33.544Z,14.63
2022-10-17T00:55:21.444Z,14.73
2022-10-17T00:57:51.006Z,15.20
2022-10-17T01:00:20.449Z,17.98
2022-10-17T01:02:49.057Z,13.80
2022-10-17T01:05:19.314Z,17.67
2022-10-17T01:07:51.242Z,13.80
2022-10-17T01:10:20.047Z,16.13
2022-10-17T01:13:00.728Z,16.15
2022-10-17T01:15:43.341Z,21.53
2022-10-17T01:18:14.565Z,25.63
2022-10-17T01:21:22.253Z,30.48
2022-10-17T01:24:08.154Z,36.45
2022-10-17T01:27:00.589Z,28.52
2022-10-17T01:30:00.829Z,31.33
2022-10-17T01:32:36.008Z,26.17
2022-10-17T01:35:26.042Z,41.50
2022-10-17T01:38:02.189Z,34.05
2022-10-17T01:40:54.148Z,34.10
2022-10-17T01:43:51.724Z,34.30
2022-10-17T01:46:29.042Z,33.95
2022-10-17T01:49:00.588Z,37.70
2022-10-17T01:51:33.703Z,33.38
2022-10-17T01:54:31.376Z,45.95
2022-10-17T01:57:04.571Z,48.03
2022-10-17T01:59:42.811Z,43.58
2022-10-17T02:02:13.274Z,40.47
2022-10-17T02:04:42.489Z,66.63
2022-10-17T02:07:13.210Z,53.28
2022-10-17T02:09:41.004Z,49.93
2022-10-17T02:12:16.606Z,53.90
2022-10-17T02:15:13.058Z,41.20
2022-10-17T02:17:53.450Z,37.42
2022-10-17T02:20:25.259Z,38.97
2022-10-17T02:23:39.928Z,56.53
2022-10-17T02:26:19.695Z,48.85
2022-10-17T02:28:54.140Z,42.65
2022-10-17T02:31:31.942Z,42.65
2022-10-17T02:34:07.136Z,36.78
2022-10-17T02:36:42.260Z,54.00
2022-10-17T02:39:12.401Z,43.60
2022-10-17T02:41:41.415Z,39.22
2022-10-17T02:44:10.528Z,43.33
2022-10-17T02:46:40.420Z,44.72
2022-10-17T02:49:24.740Z,38.80
2022-10-17T02:52:10.132Z,49.55
2022-10-17T02:54:44.199Z,39.78
2022-10-17T02:57:18.172Z,43.78
2022-10-17T02:59:47.574Z,36.80
2022-10-17T03:02:16.014Z,26.93
2022-10-17T03:04:47.332Z,47.97
2022-10-17T03:07:16.801Z,33.80
2022-10-17T03:09:45.127Z,31.02
2022-10-17T03:12:13.062Z,30.15
2022-10-17T03:14:40.962Z,35.80
2022-10-17T03:17:08.957Z,34.22
2022-10-17T03:19:37.007Z,51.95
2022-10-17T03:22:04.727Z,37.75
2022-10-17T03:24:34.218Z,32.90
2022-10-17T03:27:02.230Z,60.23
2022-10-17T03:29:30.316Z,51.35
2022-10-17T03:31:58.386Z,42.03
2022-10-17T03:34:26.589Z,31.55
2022-10-17T03:36:54.928Z,44.88
2022-10-17T03:39:23.218Z,27.03
2022-10-17T03:41:51.062Z,24.02
2022-10-17T03:44:19.322Z,37.85
2022-10-17T03:46:47.154Z,46.15
2022-10-17T03:49:15.997Z,29.77
2022-10-17T03:51:43.753Z,28.87
2022-10-17T03:54:15.106Z,30.90
2022-10-17T03:56:44.212Z,31.75
2022-10-17T03:59:16.158Z,50.72
2022-10-17T04:01:51.068Z,21.92
2022-10-17T04:04:20.079Z,35.13
2022-10-17T04:06:47.687Z,39.15
2022-10-17T04:09:16.238Z,27.92
2022-10-17T04:11:52.964Z,47.78
2022-10-17T04:14:22.225Z,31.52
2022-10-17T04:16:50.017Z,51.73
2022-10-17T04:19:21.610Z,61.88
2022-10-17T04:21:50.621Z,36.10
2022-10-17T04:24:18.848Z,30.65
2022-10-17T04:26:55.613Z,41.13
2022-10-17T04:29:27.126Z,34.80
2022-10-17T04:32:02.793Z,28.95
2022-10-17T04:34:43.637Z,27.00
2022-10-17T04:37:11.970Z,35.47
2022-10-17T04:39:39.827Z,27.02
2022-10-17T04:42:08.072Z,34.97
2022-10-17T04:44:36.173Z,30.13
2022-10-17T04:47:03.897Z,40.35
2022-10-17T04:49:32.041Z,30.00
2022-10-17T04:52:08.123Z,54.58
2022-10-17T04:54:44.626Z,27.30
2022-10-17T04:57:14.361Z,49.70
2022-10-17T04:59:46.670Z,42.30
2022-10-17T05:02:23.546Z,38.33
2022-10-17T05:04:52.186Z,21.85
2022-10-17T05:07:21.136Z,35.80
2022-10-17T05:10:09.661Z,44.53
2022-10-17T05:12:37.605Z,35.65
2022-10-17T05:15:06.938Z,30.80
2022-10-17T05:17:35.321Z,55.67
2022-10-17T05:20:03.297Z,41.93
2022-10-17T05:22:32.452Z,23.50
2022-10-17T05:25:01.193Z,38.70
2022-10-17T05:27:29.290Z,53.90
2022-10-17T05:29:57.233Z,29.65
2022-10-17T05:32:29.125Z,46.87
2022-10-17T05:34:57.417Z,31.92
2022-10-17T05:37:26.330Z,30.90
2022-10-17T05:39:57.855Z,62.13
2022-10-17T05:42:26.931Z,28.77
2022-10-17T05:44:55.170Z,31.10
2022-10-17T05:47:23.028Z,52.15
2022-10-17T05:49:52.636Z,51.10
2022-10-17T05:52:30.913Z,30.25
2022-10-17T05:55:12.295Z,24.98
2022-10-17T05:57:40.756Z,26.30
2022-10-17T06:00:14.340Z,28.00
2022-10-17T06:02:43.739Z,23.27
2022-10-17T06:05:15.245Z,23.73
2022-10-17T06:07:43.038Z,31.02
2022-10-17T06:10:16.784Z,27.30
2022-10-17T06:12:45.317Z,23.50
2022-10-17T06:15:13.762Z,23.02
2022-10-17T06:17:44.866Z,21.50
2022-10-17T06:20:12.890Z,20.77
2022-10-17T06:22:40.526Z,22.17
2022-10-17T06:25:14.225Z,22.80
2022-10-17T06:27:42.428Z,23.85
2022-10-17T06:30:11.597Z,22.40
2022-10-17T06:32:39.416Z,24.42
2022-10-17T06:35:07.810Z,26.83
2022-10-17T06:37:38.007Z,28.15
2022-10-17T06:40:12.374Z,20.23
2022-10-17T06:42:41.751Z,18.77
2022-10-17T06:45:25.494Z,22.13
2022-10-17T06:48:13.940Z,31.37
2022-10-17T06:50:52.496Z,20.10
2022-10-17T06:53:25.276Z,18.15
2022-10-17T06:56:27.206Z,22.17
2022-10-17T06:59:29.965Z,25.02
2022-10-17T07:02:06.805Z,19.33
2022-10-17T07:04:34.686Z,19.90
2022-10-17T07:07:05.197Z,20.75
2022-10-17T07:09:35.357Z,22.00
2022-10-17T07:12:03.726Z,21.00
2022-10-17T07:14:32.376Z,16.77
2022-10-17T07:17:02.714Z,18.30
2022-10-17T07:19:33.013Z,18.15
2022-10-17T07:22:01.105Z,23.67
2022-10-17T07:24:29.266Z,16.77
2022-10-17T07:27:14.380Z,31.70
2022-10-17T07:29:42.222Z,26.80
2022-10-17T07:32:19.479Z,27.02
2022-10-17T07:34:47.282Z,26.55
2022-10-17T07:37:15.188Z,25.00
2022-10-17T07:39:49.642Z,24.53
2022-10-17T07:42:17.808Z,24.08
2022-10-17T07:44:47.655Z,29.80
2022-10-17T07:47:16.230Z,23.73
2022-10-17T07:49:45.555Z,28.95
2022-10-17T07:52:15.211Z,26.03
2022-10-17T07:54:43.225Z,29.02
2022-10-17T07:57:11.868Z,28.00
2022-10-17T07:59:39.453Z,36.05
2022-10-17T08:03:01.205Z,40.75
2022-10-17T08:05:30.203Z,61.87
2022-10-17T08:07:58.350Z,56.75
2022-10-17T08:10:28.141Z,61.00
2022-10-17T08:12:57.037Z,57.08
2022-10-17T08:15:31.713Z,21.40
2022-10-17T08:18:00.437Z,24.57
2022-10-17T08:21:42.572Z,25.75
2022-10-17T08:24:10.751Z,22.90
2022-10-17T08:26:42.350Z,16.60
2022-10-17T08:29:16.171Z,19.80
2022-10-17T08:31:47.698Z,18.60
2022-10-17T08:34:16.541Z,21.90
2022-10-17T08:36:44.210Z,27.92
2022-10-17T08:39:12.349Z,22.80
2022-10-17T08:41:59.412Z,18.02
2022-10-17T08:44:54.433Z,22.53
2022-10-17T08:47:45.779Z,21.75
2022-10-17T08:51:00.408Z,17.65
2022-10-17T08:54:02.695Z,17.75
2022-10-17T08:56:50.158Z,16.45
2022-10-17T08:59:22.076Z,23.67
2022-10-17T09:02:01.636Z,31.10
2022-10-17T09:04:46.221Z,29.73
2022-10-17T09:07:22.658Z,24.60
2022-10-17T09:10:17.992Z,23.42
2022-10-17T09:13:17.778Z,24.37
2022-10-17T09:16:00.382Z,25.30
2022-10-17T09:18:33.158Z,23.33
2022-10-17T09:21:21.422Z,22.80
2022-10-17T09:23:59.477Z,23.55
2022-10-17T09:26:40.796Z,23.50
2022-10-17T09:29:20.641Z,20.20
2022-10-17T09:32:01.242Z,23.85
2022-10-17T09:34:31.747Z,22.42
2022-10-17T09:37:01.341Z,17.77
2022-10-17T09:39:33.313Z,19.33
2022-10-17T09:42:02.213Z,20.98
2022-10-17T09:44:52.541Z,23.02
2022-10-17T09:47:31.664Z,19.27
2022-10-17T09:49:59.691Z,20.50
2022-10-17T09:56:21.596Z,15.95
2022-10-17T09:58:54.757Z,14.18
2022-10-17T10:01:31.270Z,12.23
2022-10-17T10:04:16.569Z,14.35
2022-10-17T10:07:07.050Z,13.40
2022-10-17T10:09:39.475Z,12.48
2022-10-17T10:12:37.288Z,11.88
2022-10-17T10:15:36.420Z,14.30
2022-10-17T10:18:24.770Z,14.80
2022-10-17T10:21:06.471Z,17.47
2022-10-17T10:23:36.376Z,16.88
2022-10-17T10:26:06.332Z,17.30
2022-10-17T10:28:37.055Z,12.70
2022-10-17T10:31:08.262Z,13.32
2022-10-17T10:33:41.764Z,13.80
2022-10-17T10:36:10.116Z,16.15
2022-10-17T10:38:41.312Z,14.18
2022-10-17T10:41:11.781Z,16.40
2022-10-17T10:43:46.877Z,16.35
2022-10-17T10:46:24.323Z,13.73
2022-10-17T10:49:01.278Z,12.82
2022-10-17T10:51:42.727Z,15.77
2022-10-17T10:54:20.395Z,11.98
2022-10-17T10:56:53.563Z,11.27
2022-10-17T10:59:26.911Z,12.23
2022-10-17T11:01:56.881Z,13.88
2022-10-17T11:04:50.018Z,16.65
2022-10-17T11:07:22.776Z,14.75
2022-10-17T11:10:14.335Z,12.98
2022-10-17T11:13:13.941Z,12.03
2022-10-17T11:16:02.497Z,11.63
2022-10-17T11:18:45.172Z,9.55
2022-10-17T11:21:44.327Z,10.43
2022-10-17T11:24:18.235Z,10.98
2022-10-17T11:26:54.337Z,8.93
2022-10-17T11:29:27.792Z,12.38
2022-10-17T11:32:00.898Z,10.68
2022-10-17T11:34:34.472Z,11.63
2022-10-17T11:37:34.869Z,9.07
2022-10-17T11:40:20.550Z,11.17
2022-10-17T11:42:59.921Z,10.43
2022-10-17T11:45:34.695Z,15.73
2022-10-17T11:48:16.706Z,12.00
2022-10-17T11:53:55.760Z,11.50
2022-10-17T11:56:49.789Z,11.45
2022-10-17T11:59:40.738Z,13.68
2022-10-17T12:02:47.317Z,11.75
2022-10-17T12:05:29.336Z,12.63
2022-10-17T12:08:04.957Z,11.20
2022-10-17T12:11:01.594Z,9.77
2022-10-17T12:13:29.450Z,11.60
2022-10-17T12:16:18.488Z,11.05
2022-10-17T12:19:01.555Z,10.20
2022-10-17T12:21:49.746Z,9.57
2022-10-17T12:24:36.670Z,8.45
2022-10-17T12:27:23.341Z,8.52
2022-10-17T12:29:58.429Z,7.88
2022-10-17T12:32:30.312Z,10.40
2022-10-17T12:35:05.507Z,10.33
2022-10-17T12:38:01.278Z,9.80
2022-10-17T12:40:35.517Z,10.98
2022-10-17T12:43:29.629Z,11.07
2022-10-17T12:45:57.723Z,8.43
2022-10-17T12:48:35.033Z,11.90
2022-10-17T12:54:12.961Z,12.30
2022-10-17T12:56:48.083Z,20.40
2022-10-17T12:59:28.881Z,12.20
2022-10-17T13:02:02.085Z,10.80
2022-10-17T13:04:37.145Z,9.63
2022-10-17T13:07:06.013Z,10.95
2022-10-17T13:09:38.135Z,17.25
2022-10-17T13:12:12.202Z,10.15
2022-10-17T13:14:43.403Z,8.97
2022-10-17T13:17:30.941Z,9.90
2022-10-17T13:19:59.556Z,9.38
2022-10-17T13:22:32.962Z,12.75
2022-10-17T13:25:16.977Z,12.15
2022-10-17T13:27:45.561Z,11.63
2022-10-17T13:30:35.211Z,13.57
2022-10-17T13:33:04.305Z,14.68
2022-10-17T13:35:59.473Z,14.27
2022-10-17T13:38:31.188Z,11.38
2022-10-17T13:41:22.924Z,12.07
2022-10-17T13:43:50.837Z,9.48
2022-10-17T13:46:37.961Z,13.00
2022-10-17T13:49:11.615Z,11.60
2022-10-17T13:51:45.333Z,12.52
2022-10-17T13:54:33.930Z,13.73
2022-10-17T13:57:03.774Z,9.30
2022-10-17T13:59:39.993Z,15.20
2022-10-17T14:02:17.535Z,12.32
2022-10-17T14:05:15.156Z,9.25
2022-10-17T14:08:09.193Z,13.33
2022-10-17T14:10:39.496Z,9.05
2022-10-17T14:13:18.887Z,10.55
2022-10-17T14:15:47.132Z,13.93
2022-10-17T14:18:22.085Z,15.00
2022-10-17T14:23:43.838Z,15.07
2022-10-17T14:26:15.569Z,13.27
2022-10-17T14:28:47.008Z,11.95
2022-10-17T14:31:29.350Z,18.55
2022-10-17T14:33:58.012Z,22.23
2022-10-17T14:36:42.285Z,18.67
2022-10-17T14:39:21.115Z,19.77
2022-10-17T14:41:49.991Z,15.35
2022-10-17T14:44:28.214Z,17.13
2022-10-17T14:47:18.186Z,12.13
2022-10-17T14:49:52.683Z,14.55
2022-10-17T14:52:20.395Z,13.98
2022-10-17T14:54:49.646Z,13.88
2022-10-17T14:57:41.649Z,9.65
2022-10-17T15:00:18.079Z,14.13
2022-10-17T15:02:47.594Z,11.77
2022-10-17T15:05:15.948Z,11.60
2022-10-17T15:07:44.092Z,17.30
2022-10-17T15:10:34.895Z,12.32
2022-10-17T15:15:52.703Z,15.50
2022-10-17T15:18:20.347Z,16.00
2022-10-17T15:20:52.698Z,14.27
2022-10-17T15:23:28.542Z,31.52
2022-10-17T15:25:56.459Z,21.00
2022-10-17T15:28:24.275Z,18.00
2022-10-17T15:30:52.268Z,14.75
2022-10-17T15:33:20.245Z,15.50
2022-10-17T15:35:48.437Z,18.17
2022-10-17T15:38:18.728Z,15.43
2022-10-17T15:40:51.046Z,20.35
2022-10-17T15:43:19.924Z,16.50
2022-10-17T15:45:48.516Z,18.45
2022-10-17T15:48:24.638Z,21.05
2022-10-17T15:50:52.692Z,17.33
2022-10-17T15:53:20.446Z,15.07
2022-10-17T15:55:51.303Z,18.35
2022-10-17T15:58:19.596Z,34.63
2022-10-17T16:00:48.919Z,26.75
2022-10-17T16:03:17.262Z,22.10
2022-10-17T16:05:45.296Z,17.90
2022-10-17T16:08:12.996Z,19.77
2022-10-17T16:10:43.137Z,13.93
2022-10-17T16:13:27.086Z,15.18
2022-10-17T16:16:01.420Z,15.40
2022-10-17T16:18:31.307Z,15.65
2022-10-17T16:20:59.514Z,17.00
2022-10-17T16:23:27.296Z,20.40
2022-10-17T16:25:55.458Z,22.50
2022-10-17T16:28:23.341Z,17.20
2022-10-17T16:30:51.721Z,13.98
2022-10-17T16:33:22.154Z,12.35
2022-10-17T16:35:51.134Z,12.35
2022-10-17T16:38:19.387Z,15.18
2022-10-17T16:40:48.213Z,17.10
2022-10-17T16:43:15.988Z,12.38
2022-10-17T16:45:44.350Z,15.40
2022-10-17T16:48:12.770Z,11.45
2022-10-17T16:50:41.424Z,13.82
2022-10-17T16:53:09.678Z,15.13
2022-10-17T16:55:37.852Z,17.38
2022-10-17T16:58:05.929Z,15.95
2022-10-17T17:00:34.027Z,14.95
2022-10-17T17:03:02.083Z,15.45
2022-10-17T17:05:30.249Z,15.97
2022-10-17T17:07:58.054Z,13.07
2022-10-17T17:10:26.057Z,16.33
2022-10-17T17:12:53.844Z,14.68
2022-10-17T17:15:21.787Z,18.30
2022-10-17T17:17:54.755Z,20.93
2022-10-17T17:20:23.808Z,17.80
2022-10-17T17:22:52.775Z,15.02
2022-10-17T17:25:23.142Z,29.30
2022-10-17T17:27:51.023Z,23.02
2022-10-17T17:30:19.348Z,22.77
2022-10-17T17:32:47.135Z,17.30
2022-10-17T17:35:15.231Z,20.25
2022-10-17T17:37:43.022Z,14.52
2022-10-17T17:40:30.801Z,17.92
2022-10-17T17:43:02.670Z,22.63
2022-10-17T17:45:31.284Z,26.40
2022-10-17T17:47:59.182Z,34.05
2022-10-17T17:50:27.248Z,27.05
2022-10-17T17:52:55.054Z,21.77
2022-10-17T17:55:24.065Z,21.53
2022-10-17T17:57:51.884Z,19.15
2022-10-17T18:00:20.049Z,21.63
2022-10-17T18:02:47.998Z,26.42
2022-10-17T18:05:16.266Z,17.52
2022-10-17T18:07:44.448Z,15.40
2022-10-17T18:12:43.841Z,18.38
2022-10-17T18:15:11.987Z,21.92
2022-10-17T18:17:40.072Z,19.85
2022-10-17T18:20:08.574Z,26.53
2022-10-17T18:22:36.950Z,26.92
2022-10-17T18:25:06.169Z,23.30
2022-10-17T18:27:34.389Z,21.90
2022-10-17T18:30:02.607Z,24.23
2022-10-17T18:32:31.915Z,19.33
2022-10-17T18:35:00.261Z,21.35
2022-10-17T18:37:28.026Z,17.88
2022-10-17T18:39:57.688Z,17.13
2022-10-17T18:42:25.513Z,13.38
2022-10-17T18:44:53.439Z,12.87
2022-10-17T18:47:21.190Z,15.77
2022-10-17T18:49:51.919Z,17.98
2022-10-17T18:52:22.086Z,17.20
2022-10-17T18:54:50.030Z,22.02
2022-10-17T18:57:20.412Z,19.87
2022-10-17T18:59:50.723Z,18.50
2022-10-17T19:02:18.438Z,27.25
2022-10-17T19:04:46.620Z,29.15
2022-10-17T19:07:14.619Z,30.50
2022-10-17T19:09:43.672Z,33.57
2022-10-17T19:12:14.366Z,24.90
2022-10-17T19:14:42.666Z,20.20
2022-10-17T19:17:10.451Z,12.25
2022-10-17T19:19:39.406Z,15.38
2022-10-17T19:22:06.999Z,21.00
2022-10-17T19:24:35.764Z,17.90
2022-10-17T19:27:04.349Z,18.33
2022-10-17T19:29:33.310Z,18.88
2022-10-17T19:32:01.701Z,20.27
2022-10-17T19:34:30.331Z,16.87
2022-10-17T19:36:58.104Z,16.70
2022-10-17T19:39:27.731Z,18.83
2022-10-17T19:41:56.102Z,15.10
2022-10-17T19:44:24.640Z,19.15
2022-10-17T19:46:52.414Z,17.20
2022-10-17T19:49:20.795Z,18.05
2022-10-17T19:51:48.618Z,22.33
2022-10-17T19:54:19.003Z,23.58
2022-10-17T19:56:47.150Z,22.83
2022-10-17T19:59:16.443Z,15.53
2022-10-17T20:01:45.316Z,15.88
2022-10-17T20:04:14.486Z,16.92
2022-10-17T20:06:42.978Z,17.13
2022-10-17T20:09:15.712Z,16.83
2022-10-17T20:11:45.508Z,15.10
2022-10-17T20:14:13.470Z,12.68
2022-10-17T20:16:41.339Z,15.77
2022-10-17T20:19:12.173Z,13.55
2022-10-17T20:21:40.769Z,14.63
2022-10-17T20:24:15.396Z,25.33
2022-10-17T20:26:46.348Z,21.52
2022-10-17T20:29:20.300Z,14.73
2022-10-17T20:31:49.117Z,14.57
2022-10-17T20:34:18.711Z,15.45
2022-10-17T20:36:47.175Z,18.07
2022-10-17T20:39:18.088Z,19.90
2022-10-17T20:41:55.995Z,23.65
2022-10-17T20:44:25.393Z,26.25
2022-10-17T20:47:01.655Z,17.80
2022-10-17T20:49:31.765Z,21.27
2022-10-17T20:52:01.556Z,17.05
2022-10-17T20:54:30.805Z,15.85
2022-10-17T20:57:02.478Z,19.23
2022-10-17T20:59:34.575Z,16.40
2022-10-17T21:02:03.340Z,14.33
2022-10-17T21:04:48.166Z,21.67
2022-10-17T21:07:16.344Z,18.95
2022-10-17T21:09:45.730Z,22.20
2022-10-17T21:12:21.610Z,19.83
2022-10-17T21:14:59.985Z,20.87
2022-10-17T21:17:28.008Z,23.83
2022-10-17T21:19:56.251Z,24.63
2022-10-17T21:22:23.965Z,23.77
2022-10-17T21:24:51.976Z,25.23
2022-10-17T21:27:21.793Z,22.77
2022-10-17T21:29:50.028Z,18.83
2022-10-17T21:32:31.895Z,20.40
2022-10-17T21:35:07.143Z,23.00
2022-10-17T21:37:36.173Z,20.20
2022-10-17T21:40:05.940Z,20.13
2022-10-17T21:42:33.755Z,18.23
2022-10-17T21:45:04.748Z,16.23
2022-10-17T21:47:41.764Z,16.13
2022-10-17T21:50:13.694Z,17.65
2022-10-17T21:52:41.395Z,16.70
2022-10-17T21:55:09.668Z,15.57
2022-10-17T21:57:37.272Z,11.60
2022-10-17T22:00:05.882Z,13.20
2022-10-17T22:02:39.715Z,14.07
2022-10-17T22:05:08.247Z,14.70
2022-10-17T22:07:35.870Z,17.30
2022-10-17T22:10:04.180Z,15.98
2022-10-17T22:12:32.163Z,19.55
2022-10-17T22:15:00.493Z,15.45
2022-10-17T22:17:28.624Z,19.33
2022-10-17T22:19:57.002Z,19.95
2022-10-17T22:22:24.651Z,17.98
2022-10-17T22:24:52.651Z,18.92
2022-10-17T22:27:20.327Z,13.88
2022-10-17T22:29:48.387Z,17.23
2022-10-17T22:32:21.567Z,14.95
2022-10-17T22:34:50.729Z,13.63
2022-10-17T22:37:18.324Z,11.32
2022-10-17T22:39:46.481Z,13.00
2022-10-17T22:42:14.224Z,11.13
2022-10-17T22:44:43.758Z,12.88
2022-10-17T22:47:11.491Z,14.48
2022-10-17T22:49:39.514Z,8.93
2022-10-17T22:52:07.205Z,12.15
2022-10-17T22:54:35.285Z,10.43
2022-10-17T22:57:04.898Z,10.32
2022-10-17T22:59:33.915Z,11.25
2022-10-17T23:02:01.642Z,12.43
2022-10-17T23:04:30.444Z,11.48
2022-10-17T23:06:58.351Z,11.73
2022-10-17T23:11:54.958Z,12.15
2022-10-17T23:14:22.889Z,14.05
2022-10-17T23:16:50.567Z,16.73
2022-10-17T23:19:18.542Z,22.40
2022-10-17T23:21:46.368Z,17.50
2022-10-17T23:24:14.253Z,21.67
2022-10-17T23:26:42.070Z,23.27
2022-10-17T23:29:09.994Z,20.52
2022-10-17T23:31:37.876Z,19.57
2022-10-17T23:34:05.846Z,27.88
2022-10-17T23:36:33.638Z,24.20
2022-10-17T23:39:01.603Z,24.13
2022-10-17T23:41:29.453Z,29.48
2022-10-17T23:43:57.436Z,26.03
2022-10-17T23:46:25.178Z,26.48
2022-10-17T23:48:53.229Z,28.05
2022-10-17T23:51:21.399Z,24.02
2022-10-17T23:53:49.392Z,28.17
2022-10-17T23:56:17.262Z,27.77
2022-10-17T23:58:45.368Z,23.50
